Time;durP1;ratioP1;P1;durP2;ratioP2;P2;SDS_P1;SDS_P2;PMS_P1;PMS_P2;Temp;Humidity;BMP_temperature;BMP_pressure;BME280_temperature;BME280_humidity;BME280_pressure;Samples;Min_cycle;Max_cycle;Signal;HPM_P1;HPM_P2
2021/07/09 00:02:38;;;;;;;;;;;17.40;99.90;;;;;;5025862;28;19909;-53
2021/07/09 00:05:04;;;;;;;;;;;17.40;99.90;;;;;;5023399;28;19913;-52
2021/07/09 00:07:29;;;;;;;;;;;17.40;99.90;;;;;;5025458;28;19909;-52
2021/07/09 00:09:55;;;;;;;;;;;17.40;99.90;;;;;;5022671;28;19964;-55
2021/07/09 00:12:20;;;;;;;;;;;17.40;99.90;;;;;;5024892;28;20100;-52
2021/07/09 00:14:45;;;;;;;;;;;17.40;99.90;;;;;;5022405;28;19910;-52
2021/07/09 00:17:11;;;;;;;;;;;17.40;99.90;;;;;;5024681;28;19963;-54
2021/07/09 00:19:37;;;;;;;;;;;17.40;99.90;;;;;;5026011;28;19910;-53
2021/07/09 00:22:02;;;;;;;;;;;17.40;99.90;;;;;;5023405;28;20037;-54
2021/07/09 00:24:28;;;;;;;;;;;17.40;99.90;;;;;;5025012;28;19928;-55
2021/07/09 00:26:54;;;;;;;;;;;17.40;99.90;;;;;;5022358;28;19960;-54
2021/07/09 00:29:20;;;;;;;;;;;17.40;99.90;;;;;;5024757;28;20008;-52
2021/07/09 00:31:45;;;;;;;;;;;17.40;99.90;;;;;;5024174;28;19909;-57
2021/07/09 00:34:11;;;;;;;;;;;17.40;99.90;;;;;;5022558;28;19935;-52
2021/07/09 00:36:36;;;;;;;;;;;17.30;99.90;;;;;;5025179;28;19909;-53
2021/07/09 00:39:03;;;;;;;;;;;17.30;99.90;;;;;;5022842;28;20320;-54
2021/07/09 00:41:29;;;;;;;;;;;17.20;99.90;;;;;;5024199;28;20376;-52
2021/07/09 00:43:54;;;;;;;;;;;17.20;99.90;;;;;;5021792;28;19916;-53
2021/07/09 00:46:33;;;;;;;;;;;17.20;99.90;;;;;;5024417;28;20388;-54
2021/07/09 00:48:58;;;;;;;;;;;17.20;99.90;;;;;;5023141;28;19909;-54
2021/07/09 00:51:24;;;;;;;;;;;17.20;99.90;;;;;;5015656;28;19916;-52
2021/07/09 00:53:49;;;;;;;;;;;17.10;99.90;;;;;;5018941;28;19913;-53
2021/07/09 00:56:15;;;;;;;;;;;17.10;99.90;;;;;;5020604;28;20287;-53
2021/07/09 00:58:41;;;;;;;;;;;17.20;99.90;;;;;;5019761;28;19951;-52
2021/07/09 01:01:06;;;;;;;;;;;17.20;99.90;;;;;;5020530;28;19924;-53
2021/07/09 01:03:32;;;;;;;;;;;17.20;99.90;;;;;;5022111;28;20394;-52
2021/07/09 01:05:57;;;;;;;;;;;17.20;99.90;;;;;;5021196;28;19909;-56
2021/07/09 01:08:23;;;;;;;;;;;17.20;99.90;;;;;;5026614;28;19915;-51
2021/07/09 01:10:48;;;;;;;;;;;17.20;99.90;;;;;;5020241;28;19913;-53
2021/07/09 01:13:14;;;;;;;;;;;17.30;99.90;;;;;;5028462;28;19914;-52
2021/07/09 01:15:39;;;;;;;;;;;17.30;99.90;;;;;;5020041;28;19910;-55
2021/07/09 01:18:05;;;;;;;;;;;17.30;99.90;;;;;;5022588;28;19917;-52
2021/07/09 01:20:30;;;;;;;;;;;17.30;99.90;;;;;;5024891;28;19918;-51
2021/07/09 01:22:57;;;;;;;;;;;17.30;99.90;;;;;;5021441;28;19916;-51
2021/07/09 01:25:26;;;;;;;;;;;17.30;99.90;;;;;;5026362;28;20292;-52
2021/07/09 01:28:01;;;;;;;;;;;17.30;99.90;;;;;;5017287;28;19917;-51
2021/07/09 01:30:27;;;;;;;;;;;17.30;99.90;;;;;;5023845;28;20425;-54
2021/07/09 01:32:53;;;;;;;;;;;17.30;99.90;;;;;;5015699;28;19914;-51
2021/07/09 01:35:19;;;;;;;;;;;17.30;99.90;;;;;;5023446;28;19909;-54
2021/07/09 01:37:58;;;;;;;;;;;17.30;99.90;;;;;;5019554;28;19909;-52
2021/07/09 01:40:24;;;;;;;;;;;17.30;99.90;;;;;;5010289;28;19917;-52
2021/07/09 01:42:49;;;;;;;;;;;17.30;99.90;;;;;;5040401;22;19908;-47
2021/07/09 01:45:15;;;;;;;;;;;17.30;99.90;;;;;;5047324;28;20007;-48
2021/07/09 01:47:40;;;;;;;;;;;17.20;99.90;;;;;;5033375;28;20375;-48
2021/07/09 01:50:06;;;;;;;;;;;17.20;99.90;;;;;;5050971;28;19909;-47
2021/07/09 01:52:31;;;;;;;;;;;17.10;99.90;;;;;;5051867;28;19924;-48
2021/07/09 01:54:59;;;;;;;;;;;17.10;99.90;;;;;;5062365;28;20325;-50
2021/07/09 01:57:25;;;;;;;;;;;17.10;99.90;;;;;;5071008;28;19909;-49
2021/07/09 01:59:50;;;;;;;;;;;17.00;99.90;;;;;;5070788;28;19909;-49
2021/07/09 02:02:16;;;;;;;;;;;17.00;99.90;;;;;;5067045;28;19912;-48
2021/07/09 02:04:45;;;;;;;;;;;17.00;99.90;;;;;;5068255;28;19916;-50
2021/07/09 02:07:11;;;;;;;;;;;16.90;99.90;;;;;;5069896;28;20398;-53
2021/07/09 02:09:36;;;;;;;;;;;16.90;99.90;;;;;;5070871;28;19919;-52
2021/07/09 02:12:02;;;;;;;;;;;16.90;99.90;;;;;;5070405;28;20397;-49
2021/07/09 02:14:28;;;;;;;;;;;16.90;99.90;;;;;;5066609;28;19915;-53
2021/07/09 02:16:53;;;;;;;;;;;16.90;99.90;;;;;;5069111;28;20302;-52
2021/07/09 02:19:19;;;;;;;;;;;16.90;99.90;;;;;;5062987;28;19908;-50
2021/07/09 02:21:46;;;;;;;;;;;16.90;99.90;;;;;;5068475;28;19913;-51
2021/07/09 02:24:11;;;;;;;;;;;16.90;99.90;;;;;;5070238;28;19969;-51
2021/07/09 02:26:37;;;;;;;;;;;16.90;99.90;;;;;;5070432;28;19909;-53
2021/07/09 02:29:03;;;;;;;;;;;16.90;99.90;;;;;;5070218;28;19908;-49
2021/07/09 02:31:28;;;;;;;;;;;16.90;99.90;;;;;;5070432;28;19989;-52
2021/07/09 02:33:54;;;;;;;;;;;16.80;99.90;;;;;;5067950;28;19970;-50
2021/07/09 02:36:19;;;;;;;;;;;16.80;99.90;;;;;;5060889;28;20363;-48
2021/07/09 02:38:45;;;;;;;;;;;16.80;99.90;;;;;;5066506;28;19913;-47
2021/07/09 02:41:10;;;;;;;;;;;16.80;99.90;;;;;;5069948;28;20382;-49
2021/07/09 02:43:36;;;;;;;;;;;16.90;99.90;;;;;;5066542;28;19939;-50
2021/07/09 02:46:01;;;;;;;;;;;16.80;99.90;;;;;;5068886;28;20011;-47
2021/07/09 02:48:27;;;;;;;;;;;16.80;99.90;;;;;;5065921;28;19908;-53
2021/07/09 02:50:52;;;;;;;;;;;16.80;99.90;;;;;;5068484;28;19916;-49
2021/07/09 02:53:18;;;;;;;;;;;16.80;99.90;;;;;;5062785;28;19966;-48
2021/07/09 02:55:43;;;;;;;;;;;16.80;99.90;;;;;;5065905;28;19915;-50
2021/07/09 02:58:09;;;;;;;;;;;16.80;99.90;;;;;;5069840;28;19984;-50
2021/07/09 03:00:35;;;;;;;;;;;16.80;99.90;;;;;;5069810;28;19916;-52
2021/07/09 03:03:01;;;;;;;;;;;16.80;99.90;;;;;;5069684;28;19999;-50
2021/07/09 03:05:26;;;;;;;;;;;16.80;99.90;;;;;;5046256;28;19943;-47
2021/07/09 03:07:52;;;;;;;;;;;16.80;99.90;;;;;;5066737;28;20357;-47
2021/07/09 03:10:17;;;;;;;;;;;16.80;99.90;;;;;;5069462;28;19912;-50
2021/07/09 03:12:43;;;;;;;;;;;16.80;99.90;;;;;;5066434;28;19916;-49
2021/07/09 03:15:09;;;;;;;;;;;16.80;99.90;;;;;;5068077;28;19908;-50
2021/07/09 03:17:35;;;;;;;;;;;16.80;99.90;;;;;;5065315;28;20492;-49
2021/07/09 03:20:00;;;;;;;;;;;16.80;99.90;;;;;;5072006;28;19962;-51
2021/07/09 03:22:26;;;;;;;;;;;16.80;99.90;;;;;;5068416;28;20007;-50
2021/07/09 03:24:51;;;;;;;;;;;16.80;99.90;;;;;;5070341;28;20386;-53
2021/07/09 03:27:18;;;;;;;;;;;16.80;99.90;;;;;;5073344;28;19916;-47
2021/07/09 03:29:43;;;;;;;;;;;16.80;99.90;;;;;;5069747;28;19908;-47
2021/07/09 03:32:10;;;;;;;;;;;16.80;99.90;;;;;;5071979;28;20400;-50
2021/07/09 03:34:37;;;;;;;;;;;16.80;99.90;;;;;;5068690;28;20329;-50
2021/07/09 03:37:02;;;;;;;;;;;16.70;99.90;;;;;;5071136;28;19916;-49
2021/07/09 03:39:28;;;;;;;;;;;16.70;99.90;;;;;;5067891;28;19916;-50
2021/07/09 03:41:53;;;;;;;;;;;16.70;99.90;;;;;;5069673;28;19916;-51
2021/07/09 03:44:19;;;;;;;;;;;16.70;99.90;;;;;;5072816;28;19974;-48
2021/07/09 03:46:44;;;;;;;;;;;16.70;99.90;;;;;;5069499;28;19908;-51
2021/07/09 03:49:10;;;;;;;;;;;16.70;99.90;;;;;;5072011;28;19916;-49
2021/07/09 03:51:37;;;;;;;;;;;16.70;99.90;;;;;;5068640;28;19913;-51
2021/07/09 03:54:04;;;;;;;;;;;16.70;99.90;;;;;;5066918;28;19908;-47
2021/07/09 03:56:29;;;;;;;;;;;16.70;99.90;;;;;;5070966;28;19915;-47
2021/07/09 03:58:58;;;;;;;;;;;16.70;99.90;;;;;;5073206;28;19912;-48
2021/07/09 04:01:24;;;;;;;;;;;16.70;99.90;;;;;;5072606;28;19913;-47
2021/07/09 04:03:50;;;;;;;;;;;16.70;99.90;;;;;;5072922;28;19961;-50
2021/07/09 04:06:16;;;;;;;;;;;16.80;99.90;;;;;;5064326;28;19920;-49
2021/07/09 04:08:42;;;;;;;;;;;16.80;99.90;;;;;;5072428;28;19913;-48
2021/07/09 04:11:07;;;;;;;;;;;16.80;99.90;;;;;;5052589;28;19916;-48
2021/07/09 04:13:33;;;;;;;;;;;16.80;99.90;;;;;;5069979;28;19948;-48
2021/07/09 04:15:58;;;;;;;;;;;16.90;99.90;;;;;;5071409;28;20315;-50
2021/07/09 04:18:24;;;;;;;;;;;16.90;99.90;;;;;;5067373;28;19909;-47
2021/07/09 04:20:49;;;;;;;;;;;16.90;99.90;;;;;;5072939;28;19920;-51
2021/07/09 04:23:15;;;;;;;;;;;16.90;99.90;;;;;;5064040;28;19959;-50
2021/07/09 04:25:40;;;;;;;;;;;17.00;99.90;;;;;;5053991;28;19962;-49
2021/07/09 04:28:06;;;;;;;;;;;17.00;99.90;;;;;;5070562;28;19951;-52
2021/07/09 04:30:31;;;;;;;;;;;17.00;99.90;;;;;;5068483;28;19908;-48
2021/07/09 04:32:57;;;;;;;;;;;17.00;99.90;;;;;;5071447;28;19909;-50
2021/07/09 04:35:22;;;;;;;;;;;17.10;99.90;;;;;;5066207;28;19909;-48
2021/07/09 04:37:48;;;;;;;;;;;17.10;99.90;;;;;;5072664;28;19908;-51
2021/07/09 04:40:15;;;;;;;;;;;17.10;99.90;;;;;;5063488;28;19909;-49
2021/07/09 04:42:41;;;;;;;;;;;17.20;99.90;;;;;;5071382;28;19909;-50
2021/07/09 04:45:07;;;;;;;;;;;17.20;99.90;;;;;;5069756;28;20057;-50
2021/07/09 04:47:32;;;;;;;;;;;17.20;99.90;;;;;;5069519;28;19916;-50
2021/07/09 04:49:58;;;;;;;;;;;17.20;99.90;;;;;;5071494;28;19908;-49
2021/07/09 04:52:23;;;;;;;;;;;17.20;99.90;;;;;;5048503;28;20001;-52
2021/07/09 04:54:48;;;;;;;;;;;17.30;99.90;;;;;;5066007;28;19912;-50
2021/07/09 04:57:14;;;;;;;;;;;17.30;99.90;;;;;;5072211;28;19916;-46
2021/07/09 04:59:39;;;;;;;;;;;17.40;99.90;;;;;;5071958;28;20279;-47
2021/07/09 05:02:05;;;;;;;;;;;17.40;99.90;;;;;;5072049;28;19974;-52
2021/07/09 05:04:30;;;;;;;;;;;17.40;99.90;;;;;;5066268;28;19909;-48
2021/07/09 05:06:56;;;;;;;;;;;17.40;99.90;;;;;;5068362;28;19912;-52
2021/07/09 05:09:22;;;;;;;;;;;17.50;99.90;;;;;;5064773;28;19909;-53
2021/07/09 05:11:47;;;;;;;;;;;17.50;99.90;;;;;;5067996;28;19909;-50
2021/07/09 05:14:13;;;;;;;;;;;17.50;99.90;;;;;;5070443;28;19908;-52
2021/07/09 05:16:38;;;;;;;;;;;17.50;99.90;;;;;;5066981;28;20448;-48
2021/07/09 05:19:04;;;;;;;;;;;17.50;99.90;;;;;;5070042;28;19909;-48
2021/07/09 05:21:30;;;;;;;;;;;17.60;99.90;;;;;;5066114;28;20397;-57
2021/07/09 05:23:56;;;;;;;;;;;17.60;99.90;;;;;;5068460;28;19913;-49
2021/07/09 05:26:22;;;;;;;;;;;17.60;99.90;;;;;;5070882;28;19943;-49
2021/07/09 05:28:48;;;;;;;;;;;17.60;99.90;;;;;;5067610;28;19999;-53
2021/07/09 05:31:14;;;;;;;;;;;17.70;99.90;;;;;;5070158;28;19909;-51
2021/07/09 05:33:40;;;;;;;;;;;17.70;99.90;;;;;;5066552;28;19916;-50
2021/07/09 05:36:05;;;;;;;;;;;17.70;99.90;;;;;;5068885;28;19916;-50
2021/07/09 05:38:31;;;;;;;;;;;17.80;99.90;;;;;;5065786;28;19909;-50
2021/07/09 05:40:56;;;;;;;;;;;17.80;99.90;;;;;;5068029;28;20332;-48
2021/07/09 05:43:22;;;;;;;;;;;17.80;99.90;;;;;;5070322;28;19916;-54
2021/07/09 05:45:47;;;;;;;;;;;17.90;99.90;;;;;;5067313;28;19912;-48
2021/07/09 05:48:13;;;;;;;;;;;18.00;99.90;;;;;;5070370;28;19917;-52
2021/07/09 05:50:39;;;;;;;;;;;18.00;99.90;;;;;;5066453;28;19909;-53
2021/07/09 05:53:04;;;;;;;;;;;18.00;99.90;;;;;;5066585;28;20314;-51
2021/07/09 05:55:30;;;;;;;;;;;18.20;99.90;;;;;;5067057;28;20302;-49
2021/07/09 05:57:55;;;;;;;;;;;18.20;99.90;;;;;;5070903;28;19912;-49
2021/07/09 06:00:21;;;;;;;;;;;18.20;99.90;;;;;;5070841;28;19908;-48
2021/07/09 06:02:46;;;;;;;;;;;18.30;99.90;;;;;;5071374;28;20354;-49
2021/07/09 06:05:12;;;;;;;;;;;18.30;99.90;;;;;;5065099;28;19934;-49
2021/07/09 06:07:38;;;;;;;;;;;18.40;99.90;;;;;;5068186;28;19916;-49
2021/07/09 06:10:05;;;;;;;;;;;18.50;99.90;;;;;;5070212;28;20393;-48
2021/07/09 06:12:31;;;;;;;;;;;18.50;99.90;;;;;;5066918;28;19908;-50
2021/07/09 06:14:56;;;;;;;;;;;18.60;99.90;;;;;;5069192;28;19915;-47
2021/07/09 06:17:21;;;;;;;;;;;18.60;99.90;;;;;;5066752;28;19915;-47
2021/07/09 06:19:47;;;;;;;;;;;18.70;99.90;;;;;;5068847;28;19961;-52
2021/07/09 06:22:12;;;;;;;;;;;18.80;99.90;;;;;;5065050;28;20555;-48
2021/07/09 06:24:38;;;;;;;;;;;18.80;99.90;;;;;;5050173;28;19915;-49
2021/07/09 06:27:03;;;;;;;;;;;18.80;99.90;;;;;;5070667;28;19913;-54
2021/07/09 06:29:29;;;;;;;;;;;18.90;99.90;;;;;;5067205;28;19949;-48
2021/07/09 06:31:55;;;;;;;;;;;18.90;99.90;;;;;;5069650;28;19940;-49
2021/07/09 06:34:20;;;;;;;;;;;18.90;99.90;;;;;;5066391;28;19948;-49
2021/07/09 06:36:46;;;;;;;;;;;19.00;99.90;;;;;;5068621;28;19915;-49
2021/07/09 06:39:11;;;;;;;;;;;19.00;99.90;;;;;;5064825;28;20397;-54
2021/07/09 06:41:37;;;;;;;;;;;19.10;99.90;;;;;;5067231;28;19919;-49
2021/07/09 06:44:02;;;;;;;;;;;19.10;99.90;;;;;;5069306;28;19967;-48
2021/07/09 06:46:28;;;;;;;;;;;19.10;99.90;;;;;;5066497;28;20023;-53
2021/07/09 06:48:54;;;;;;;;;;;19.10;99.90;;;;;;5069111;28;20342;-49
2021/07/09 06:51:19;;;;;;;;;;;19.00;99.90;;;;;;5065826;28;20362;-51
2021/07/09 06:53:47;;;;;;;;;;;19.10;99.90;;;;;;5065465;28;19909;-48
2021/07/09 06:56:13;;;;;;;;;;;19.10;99.90;;;;;;5065838;28;19961;-52
2021/07/09 06:58:39;;;;;;;;;;;19.10;99.90;;;;;;5051834;28;20002;-49
2021/07/09 07:01:04;;;;;;;;;;;19.10;99.90;;;;;;5069933;28;19917;-50
2021/07/09 07:03:29;;;;;;;;;;;19.10;99.90;;;;;;5069663;28;20314;-49
2021/07/09 07:05:55;;;;;;;;;;;19.30;99.90;;;;;;5051036;28;19913;-50
2021/07/09 07:08:23;;;;;;;;;;;19.30;99.90;;;;;;5067141;28;19944;-53
2021/07/09 07:10:51;;;;;;;;;;;19.40;99.90;;;;;;5069617;28;19913;-53
2021/07/09 07:13:17;;;;;;;;;;;19.40;99.90;;;;;;5046589;28;20066;-53
2021/07/09 07:15:43;;;;;;;;;;;19.40;99.90;;;;;;5069802;28;19928;-51
2021/07/09 07:18:09;;;;;;;;;;;19.50;99.90;;;;;;5062927;28;19909;-49
2021/07/09 07:20:41;;;;;;;;;;;19.70;99.90;;;;;;5069750;28;20338;-52
2021/07/09 07:23:07;;;;;;;;;;;19.80;99.90;;;;;;5061637;28;19909;-49
2021/07/09 07:25:33;;;;;;;;;;;19.80;99.90;;;;;;5067860;28;19909;-45
2021/07/09 07:27:59;;;;;;;;;;;19.70;99.90;;;;;;5068481;28;19942;-47
2021/07/09 07:30:25;;;;;;;;;;;19.70;99.90;;;;;;5065508;28;19909;-49
2021/07/09 07:32:50;;;;;;;;;;;19.70;99.90;;;;;;5069230;28;20013;-48
2021/07/09 07:35:16;;;;;;;;;;;19.60;99.90;;;;;;5062448;28;20037;-47
2021/07/09 07:37:42;;;;;;;;;;;19.70;99.90;;;;;;5069526;28;20386;-49
2021/07/09 07:40:08;;;;;;;;;;;19.70;99.90;;;;;;5061114;28;19991;-52
2021/07/09 07:42:33;;;;;;;;;;;19.80;99.90;;;;;;5067991;28;20493;-51
2021/07/09 07:44:59;;;;;;;;;;;20.00;99.90;;;;;;5089753;22;19924;-56
2021/07/09 07:47:24;;;;;;;;;;;20.00;99.90;;;;;;5073891;28;19915;-56
2021/07/09 07:49:50;;;;;;;;;;;20.00;99.90;;;;;;5070170;28;19913;-58
2021/07/09 07:52:15;;;;;;;;;;;19.90;99.90;;;;;;5076940;28;19915;-57
2021/07/09 07:54:41;;;;;;;;;;;20.00;99.90;;;;;;5070451;28;19909;-59
2021/07/09 07:57:06;;;;;;;;;;;19.70;99.90;;;;;;5059253;28;19909;-57
2021/07/09 07:59:32;;;;;;;;;;;19.70;99.90;;;;;;5056909;28;19916;-59
2021/07/09 08:01:58;;;;;;;;;;;19.60;99.90;;;;;;5060493;28;19921;-57
2021/07/09 08:04:23;;;;;;;;;;;19.50;99.90;;;;;;5055210;28;19954;-58
2021/07/09 08:06:48;;;;;;;;;;;19.60;99.90;;;;;;5070097;28;20406;-59
2021/07/09 08:09:15;;;;;;;;;;;19.30;99.90;;;;;;5073259;28;19952;-58
2021/07/09 08:11:40;;;;;;;;;;;19.40;99.90;;;;;;5070431;28;19912;-57
2021/07/09 08:14:06;;;;;;;;;;;19.40;99.90;;;;;;5073005;28;20275;-59
2021/07/09 08:16:31;;;;;;;;;;;19.50;99.90;;;;;;5069312;28;20271;-57
2021/07/09 08:18:57;;;;;;;;;;;19.60;99.90;;;;;;5072501;28;19913;-58
2021/07/09 08:21:22;;;;;;;;;;;19.70;99.90;;;;;;5070010;28;19917;-59
2021/07/09 08:23:48;;;;;;;;;;;19.80;99.90;;;;;;5070292;28;19999;-56
2021/07/09 08:26:13;;;;;;;;;;;19.90;99.90;;;;;;5072894;28;19919;-56
2021/07/09 08:28:39;;;;;;;;;;;20.10;99.90;;;;;;5069545;28;19992;-58
2021/07/09 08:31:06;;;;;;;;;;;20.10;99.90;;;;;;5072522;28;20293;-58
2021/07/09 08:33:31;;;;;;;;;;;20.20;99.90;;;;;;5069576;28;20395;-59
2021/07/09 08:35:57;;;;;;;;;;;20.20;99.90;;;;;;5071161;28;19913;-59
2021/07/09 08:38:23;;;;;;;;;;;20.30;99.90;;;;;;5069777;28;19909;-59
2021/07/09 08:40:48;;;;;;;;;;;20.30;99.90;;;;;;5070079;28;19921;-58
2021/07/09 08:43:14;;;;;;;;;;;20.30;99.90;;;;;;5074161;28;19915;-59
2021/07/09 08:45:39;;;;;;;;;;;20.50;99.90;;;;;;5070104;28;19923;-58
2021/07/09 08:48:07;;;;;;;;;;;20.60;99.90;;;;;;5073471;28;19983;-60
2021/07/09 08:50:32;;;;;;;;;;;20.80;99.90;;;;;;5069257;28;19963;-57
2021/07/09 08:52:58;;;;;;;;;;;21.00;99.90;;;;;;5071016;28;19909;-58
2021/07/09 08:55:23;;;;;;;;;;;21.00;99.90;;;;;;5065412;28;19913;-59
2021/07/09 08:57:49;;;;;;;;;;;21.10;99.90;;;;;;5063385;28;19920;-60
2021/07/09 09:00:20;;;;;;;;;;;21.20;99.90;;;;;;5043036;28;19956;-60
2021/07/09 09:02:46;;;;;;;;;;;21.10;99.90;;;;;;5061573;28;19920;-59
2021/07/09 09:05:22;;;;;;;;;;;21.20;99.90;;;;;;5064025;28;20371;-60
2021/07/09 09:07:59;;;;;;;;;;;21.20;99.90;;;;;;5069786;28;19912;-59
2021/07/09 09:10:38;;;;;;;;;;;21.20;99.90;;;;;;5065844;28;19995;-56
2021/07/09 09:13:05;;;;;;;;;;;21.20;99.90;;;;;;5067325;28;20524;-59
2021/07/09 09:15:30;;;;;;;;;;;21.30;99.90;;;;;;5071955;28;19913;-57
2021/07/09 09:17:56;;;;;;;;;;;21.20;99.90;;;;;;5067140;28;19958;-58
2021/07/09 09:20:21;;;;;;;;;;;21.40;99.90;;;;;;5070790;28;19920;-56
2021/07/09 09:22:49;;;;;;;;;;;21.70;99.90;;;;;;5066423;28;19920;-56
2021/07/09 09:25:16;;;;;;;;;;;22.00;99.90;;;;;;5067978;28;19931;-55
2021/07/09 09:27:41;;;;;;;;;;;22.10;99.90;;;;;;5072075;28;19908;-57
2021/07/09 09:30:11;;;;;;;;;;;22.30;99.90;;;;;;5066365;28;19920;-58
2021/07/09 09:32:49;;;;;;;;;;;22.40;99.90;;;;;;5071741;28;19915;-56
2021/07/09 09:35:27;;;;;;;;;;;22.60;99.90;;;;;;5064329;28;19931;-55
2021/07/09 09:37:53;;;;;;;;;;;22.60;99.90;;;;;;5071150;28;19909;-56
2021/07/09 09:40:19;;;;;;;;;;;22.60;99.90;;;;;;5063474;28;19966;-55
2021/07/09 09:42:45;;;;;;;;;;;22.40;99.90;;;;;;5071075;28;19951;-54
2021/07/09 09:45:10;;;;;;;;;;;22.30;99.90;;;;;;5068250;28;19924;-58
2021/07/09 09:47:36;;;;;;;;;;;22.10;99.90;;;;;;5069371;28;19909;-54
2021/07/09 09:50:03;;;;;;;;;;;22.20;99.90;;;;;;5069791;28;19915;-55
2021/07/09 09:52:42;;;;;;;;;;;22.30;99.90;;;;;;5066194;28;19908;-55
2021/07/09 09:55:09;;;;;;;;;;;22.10;99.90;;;;;;5063668;28;19993;-53
2021/07/09 09:57:35;;;;;;;;;;;22.00;99.90;;;;;;5059778;28;19932;-56
2021/07/09 10:00:01;;;;;;;;;;;21.90;99.90;;;;;;5060801;28;20398;-56
2021/07/09 10:02:26;;;;;;;;;;;21.90;99.90;;;;;;5069171;28;19912;-57
2021/07/09 10:04:55;;;;;;;;;;;21.90;99.90;;;;;;5065331;28;19980;-56
2021/07/09 10:07:20;;;;;;;;;;;21.90;99.90;;;;;;5068227;28;19909;-55
2021/07/09 10:09:46;;;;;;;;;;;21.90;99.90;;;;;;5070573;28;19915;-55
2021/07/09 10:12:14;;;;;;;;;;;21.90;99.90;;;;;;5067295;28;20407;-54
2021/07/09 10:14:43;;;;;;;;;;;21.90;99.90;;;;;;5069581;28;19948;-56
2021/07/09 10:17:09;;;;;;;;;;;21.90;99.90;;;;;;5065647;28;19916;-56
2021/07/09 10:19:38;;;;;;;;;;;21.90;99.90;;;;;;5068892;28;19912;-56
2021/07/09 10:22:07;;;;;;;;;;;21.70;99.90;;;;;;5065165;28;19913;-54
2021/07/09 10:24:36;;;;;;;;;;;21.60;99.90;;;;;;5067528;28;19908;-57
2021/07/09 10:27:02;;;;;;;;;;;21.60;99.90;;;;;;5069931;28;19915;-57
2021/07/09 10:29:34;;;;;;;;;;;21.60;99.90;;;;;;5066372;28;19913;-57
2021/07/09 10:32:04;;;;;;;;;;;21.50;99.90;;;;;;5051154;28;19913;-56
2021/07/09 10:34:34;;;;;;;;;;;21.70;99.90;;;;;;5065651;28;19908;-55
2021/07/09 10:37:18;;;;;;;;;;;21.70;99.90;;;;;;5068417;28;19909;-54
2021/07/09 10:39:48;;;;;;;;;;;21.70;99.90;;;;;;5065206;28;19931;-54
2021/07/09 10:42:14;;;;;;;;;;;21.90;99.90;;;;;;5066756;28;19912;-53
2021/07/09 10:44:55;;;;;;;;;;;21.90;99.90;;;;;;5070548;28;19919;-55
2021/07/09 10:47:20;;;;;;;;;;;21.90;99.90;;;;;;5066177;28;19977;-55
2021/07/09 10:49:49;;;;;;;;;;;22.00;99.90;;;;;;5070622;28;20403;-58
2021/07/09 10:52:34;;;;;;;;;;;22.10;99.90;;;;;;5063106;28;19913;-56
2021/07/09 10:54:59;;;;;;;;;;;22.20;99.90;;;;;;5064645;28;19962;-55
2021/07/09 10:57:25;;;;;;;;;;;22.10;99.90;;;;;;5058654;28;20314;-52
2021/07/09 11:00:11;;;;;;;;;;;22.10;99.90;;;;;;5059395;28;19915;-52
2021/07/09 11:03:07;;;;;;;;;;;22.10;99.90;;;;;;5057451;28;19935;-55
2021/07/09 11:05:42;;;;;;;;;;;22.10;99.90;;;;;;5043981;28;19944;-54
2021/07/09 11:08:26;;;;;;;;;;;22.30;99.90;;;;;;5066662;28;19966;-55
2021/07/09 11:10:58;;;;;;;;;;;22.30;99.90;;;;;;5070226;28;19912;-53
2021/07/09 11:13:41;;;;;;;;;;;22.30;99.90;;;;;;5066352;28;20387;-53
2021/07/09 11:16:24;;;;;;;;;;;22.30;99.90;;;;;;5067896;28;19913;-55
2021/07/09 11:19:04;;;;;;;;;;;22.20;99.90;;;;;;5065465;28;19908;-55
2021/07/09 11:21:30;;;;;;;;;;;22.10;99.90;;;;;;5058919;28;20308;-55
2021/07/09 11:24:05;;;;;;;;;;;22.00;99.90;;;;;;5067278;28;19909;-55
2021/07/09 11:26:32;;;;;;;;;;;22.10;99.90;;;;;;5069278;28;19909;-53
2021/07/09 11:28:57;;;;;;;;;;;22.20;99.90;;;;;;5066104;28;19919;-55
2021/07/09 11:31:34;;;;;;;;;;;22.30;99.90;;;;;;5068901;28;20404;-52
2021/07/09 11:34:06;;;;;;;;;;;22.30;99.90;;;;;;5064585;28;19915;-54
2021/07/09 11:36:50;;;;;;;;;;;22.30;99.90;;;;;;5067231;28;19909;-55
2021/07/09 11:39:17;;;;;;;;;;;22.40;99.90;;;;;;5065473;28;19927;-53
2021/07/09 11:41:53;;;;;;;;;;;22.40;99.90;;;;;;5071009;28;20011;-54
2021/07/09 11:44:19;;;;;;;;;;;22.40;99.90;;;;;;5055499;28;19938;-51
2021/07/09 11:46:51;;;;;;;;;;;22.30;99.90;;;;;;5073399;28;20209;-55
2021/07/09 11:49:20;;;;;;;;;;;22.20;99.90;;;;;;5072532;28;19908;-55
2021/07/09 11:51:48;;;;;;;;;;;22.20;99.90;;;;;;5050889;28;19915;-55
2021/07/09 11:54:13;;;;;;;;;;;22.20;99.90;;;;;;5069995;28;19935;-54
2021/07/09 11:56:39;;;;;;;;;;;22.10;99.90;;;;;;5064780;28;20391;-57
2021/07/09 11:59:18;;;;;;;;;;;22.00;99.90;;;;;;5058146;28;19951;-54
2021/07/09 12:01:58;;;;;;;;;;;22.00;99.90;;;;;;5070840;28;19913;-57
2021/07/09 12:04:30;;;;;;;;;;;22.10;99.90;;;;;;5062016;28;19912;-55
2021/07/09 12:07:15;;;;;;;;;;;22.00;99.90;;;;;;5067921;28;19909;-56
2021/07/09 12:09:42;;;;;;;;;;;22.00;99.90;;;;;;5072920;28;19914;-56
2021/07/09 12:12:07;;;;;;;;;;;21.90;99.90;;;;;;5055658;28;19913;-53
2021/07/09 12:14:47;;;;;;;;;;;21.90;99.90;;;;;;5071803;28;19909;-54
2021/07/09 12:17:13;;;;;;;;;;;22.00;99.90;;;;;;5068077;28;19914;-54
2021/07/09 12:19:52;;;;;;;;;;;21.90;99.90;;;;;;5070706;28;20357;-54
2021/07/09 12:22:21;;;;;;;;;;;22.00;99.90;;;;;;5049370;28;19916;-52
2021/07/09 12:24:51;;;;;;;;;;;22.00;99.90;;;;;;5072726;28;19924;-53
2021/07/09 12:27:17;;;;;;;;;;;22.00;99.90;;;;;;5072590;28;19914;-55
2021/07/09 12:29:42;;;;;;;;;;;22.10;99.90;;;;;;5068774;28;19913;-53
2021/07/09 12:32:08;;;;;;;;;;;22.10;99.90;;;;;;5070995;28;19908;-53
2021/07/09 12:34:33;;;;;;;;;;;22.10;99.90;;;;;;5067574;28;19909;-56
2021/07/09 12:37:03;;;;;;;;;;;22.20;99.90;;;;;;5070149;28;19909;-54
2021/07/09 12:39:28;;;;;;;;;;;22.20;99.90;;;;;;5067126;28;19909;-54
2021/07/09 12:41:54;;;;;;;;;;;22.00;99.90;;;;;;5069469;28;19935;-51
2021/07/09 12:44:20;;;;;;;;;;;22.00;99.90;;;;;;5064426;28;19912;-54
2021/07/09 12:46:46;;;;;;;;;;;22.00;99.90;;;;;;5068433;28;19954;-53
2021/07/09 12:49:13;;;;;;;;;;;21.90;99.90;;;;;;5070873;28;19962;-55
2021/07/09 12:51:43;;;;;;;;;;;21.80;99.90;;;;;;5067086;28;19908;-56
2021/07/09 12:54:13;;;;;;;;;;;21.70;99.90;;;;;;5067262;28;19995;-55
2021/07/09 12:56:46;;;;;;;;;;;21.70;99.90;;;;;;5063185;28;20401;-56
2021/07/09 12:59:16;;;;;;;;;;;21.80;99.90;;;;;;5069046;28;19913;-56
2021/07/09 13:01:42;;;;;;;;;;;21.80;99.90;;;;;;5068291;28;20418;-55
2021/07/09 13:04:29;;;;;;;;;;;21.90;99.90;;;;;;5069546;28;19916;-54
2021/07/09 13:07:05;;;;;;;;;;;21.90;99.90;;;;;;5066441;28;19905;-53
2021/07/09 13:09:34;;;;;;;;;;;21.80;99.90;;;;;;5071596;28;19932;-54
2021/07/09 13:12:12;;;;;;;;;;;21.90;99.90;;;;;;5068364;28;19915;-57
2021/07/09 13:14:48;;;;;;;;;;;21.90;99.90;;;;;;5070540;28;19920;-56
2021/07/09 13:17:16;;;;;;;;;;;21.90;99.90;;;;;;5066989;28;19912;-56
2021/07/09 13:19:41;;;;;;;;;;;21.80;99.90;;;;;;5069774;28;19989;-56
2021/07/09 13:22:08;;;;;;;;;;;21.80;99.90;;;;;;5066083;28;19964;-54
2021/07/09 13:24:35;;;;;;;;;;;21.90;99.90;;;;;;5068545;28;19908;-54
2021/07/09 13:27:01;;;;;;;;;;;22.00;99.90;;;;;;5071020;28;19952;-54
2021/07/09 13:29:27;;;;;;;;;;;22.00;99.90;;;;;;5067733;28;20337;-53
2021/07/09 13:31:54;;;;;;;;;;;21.90;99.90;;;;;;5069905;28;19912;-54
2021/07/09 13:34:20;;;;;;;;;;;21.90;99.90;;;;;;5048860;28;20011;-52
2021/07/09 13:36:46;;;;;;;;;;;21.90;99.90;;;;;;5069113;28;19915;-54
2021/07/09 13:39:11;;;;;;;;;;;21.90;99.90;;;;;;5066090;28;19908;-56
2021/07/09 13:41:37;;;;;;;;;;;21.90;99.90;;;;;;5068670;28;19923;-55
2021/07/09 13:44:03;;;;;;;;;;;21.90;99.90;;;;;;5070563;28;19908;-53
2021/07/09 13:46:28;;;;;;;;;;;21.90;99.90;;;;;;5071499;22;19924;-57
2021/07/09 13:48:54;;;;;;;;;;;21.90;99.90;;;;;;5051247;28;20319;-54
2021/07/09 13:51:19;;;;;;;;;;;21.90;99.90;;;;;;5012913;28;19909;-56
2021/07/09 13:53:46;;;;;;;;;;;21.90;99.90;;;;;;5047360;28;19921;-57
2021/07/09 13:56:11;;;;;;;;;;;21.90;99.90;;;;;;5053959;28;19954;-53
2021/07/09 13:58:37;;;;;;;;;;;21.80;99.90;;;;;;5051454;28;20376;-53
2021/07/09 14:01:03;;;;;;;;;;;21.70;99.90;;;;;;5051190;28;19921;-52
2021/07/09 14:03:28;;;;;;;;;;;21.70;99.90;;;;;;5051115;28;19936;-55
2021/07/09 14:05:54;;;;;;;;;;;21.70;99.90;;;;;;5050930;28;19944;-52
2021/07/09 14:08:20;;;;;;;;;;;21.70;99.90;;;;;;5051114;28;19992;-57
2021/07/09 14:10:47;;;;;;;;;;;21.70;99.90;;;;;;5051511;28;19909;-55
2021/07/09 14:13:12;;;;;;;;;;;21.70;99.90;;;;;;5034003;28;20337;-53
2021/07/09 14:15:39;;;;;;;;;;;21.60;99.90;;;;;;5032927;28;19916;-56
2021/07/09 14:18:05;;;;;;;;;;;21.60;99.90;;;;;;5024867;28;19913;-56